createdAt,value
2023-05-10T00:00:05.812Z,99381.97
2023-05-10T00:01:14.684Z,99388.31
2023-05-10T00:02:16.279Z,99378.03
2023-05-10T00:03:17.909Z,99380.91
2023-05-10T00:04:19.577Z,99380.47
2023-05-10T00:05:21.266Z,99384.78
2023-05-10T00:06:22.900Z,99373.66
2023-05-10T00:07:24.423Z,99380.34
2023-05-10T00:08:25.951Z,99375.59
2023-05-10T00:09:27.478Z,99369.25
2023-05-10T00:10:29.043Z,99372.03
2023-05-10T00:11:30.627Z,99370.63
2023-05-10T00:12:32.136Z,99369.53
2023-05-10T00:13:34.064Z,99372.16
2023-05-10T00:14:35.665Z,99367.84
2023-05-10T00:15:37.227Z,99360.59
2023-05-10T00:16:38.801Z,99370.38
2023-05-10T00:17:40.488Z,99366.31
2023-05-10T00:18:42.024Z,99370.03
2023-05-10T00:19:43.524Z,99368.72
2023-05-10T00:20:45.071Z,99373.81
2023-05-10T00:21:46.612Z,99366.78
2023-05-10T00:22:48.188Z,99364.25
2023-05-10T00:23:49.696Z,99365.50
2023-05-10T00:24:51.186Z,99364.44
2023-05-10T00:25:52.696Z,99361.22
2023-05-10T00:26:54.219Z,99363.97
2023-05-10T00:27:55.715Z,99363.63
2023-05-10T00:28:57.219Z,99364.56
2023-05-10T00:29:58.757Z,99364.22
2023-05-10T00:31:00.265Z,99361.34
2023-05-10T00:32:01.923Z,99358.84
2023-05-10T00:33:03.594Z,99368.63
2023-05-10T00:34:05.168Z,99364.91
2023-05-10T00:35:07.096Z,99358.84
2023-05-10T00:36:08.837Z,99361.34
2023-05-10T00:37:10.467Z,99355.72
2023-05-10T00:38:12.003Z,99355.72
2023-05-10T00:39:13.496Z,99357.25
2023-05-10T00:40:15.452Z,99356.19
2023-05-10T00:41:20.067Z,99348.53
2023-05-10T00:42:22.254Z,99351.53
2023-05-10T00:43:23.987Z,99355.13
2023-05-10T00:44:25.627Z,99346.44
2023-05-10T00:45:27.252Z,99353.63
2023-05-10T00:46:29.692Z,99350.41
2023-05-10T00:47:32.236Z,99346.09
2023-05-10T00:48:34.503Z,99343.47
2023-05-10T00:49:37.313Z,99350.16
2023-05-10T00:50:39.314Z,99347.78
2023-05-10T00:51:40.879Z,99339.69
2023-05-10T00:52:43.669Z,99341.47
2023-05-10T00:53:47.044Z,99343.00
2023-05-10T00:54:48.818Z,99347.91
2023-05-10T00:55:50.373Z,99338.25
2023-05-10T00:56:52.501Z,99340.88
2023-05-10T00:57:54.665Z,99339.22
2023-05-10T00:58:56.524Z,99340.88
2023-05-10T00:59:58.863Z,99343.50
2023-05-10T01:01:02.154Z,99337.41
2023-05-10T01:02:03.980Z,99338.00
2023-05-10T01:03:05.625Z,99339.47
2023-05-10T01:04:07.578Z,99343.97
2023-05-10T01:05:09.387Z,99336.94
2023-05-10T01:06:11.244Z,99333.59
2023-05-10T01:07:12.806Z,99342.91
2023-05-10T01:08:14.679Z,99336.59
2023-05-10T01:09:16.301Z,99338.97
2023-05-10T01:10:18.256Z,99339.22
2023-05-10T01:11:20.136Z,99339.22
2023-05-10T01:12:21.871Z,99338.25
2023-05-10T01:13:43.892Z,99337.31
2023-05-10T01:14:45.793Z,99332.91
2023-05-10T01:15:47.499Z,99341.34
2023-05-10T01:16:51.045Z,99333.97
2023-05-10T01:17:53.481Z,99341.75
2023-05-10T01:18:55.107Z,99338.97
2023-05-10T01:19:56.651Z,99336.72
2023-05-10T01:21:28.177Z,99334.34
2023-05-10T01:23:01.040Z,99334.94
2023-05-10T01:24:26.894Z,99328.59
2023-05-10T01:25:53.182Z,99331.94
2023-05-10T01:27:16.068Z,99334.44
2023-05-10T01:28:48.450Z,99330.03
2023-05-10T01:30:05.068Z,99332.41
2023-05-10T01:31:58.403Z,99326.44
2023-05-10T01:33:52.182Z,99330.84
2023-05-10T01:35:17.927Z,99332.75
2023-05-10T01:36:28.034Z,99334.31
2023-05-10T01:37:47.597Z,99337.06
2023-05-10T01:38:58.155Z,99326.19
2023-05-10T01:40:03.149Z,99325.84
2023-05-10T01:41:41.157Z,99330.84
2023-05-10T01:42:50.919Z,99323.38
2023-05-10T01:44:02.103Z,99336.50
2023-05-10T01:45:15.444Z,99335.41
2023-05-10T01:46:28.273Z,99335.41
2023-05-10T01:47:35.864Z,99331.72
2023-05-10T01:48:47.737Z,99333.28
2023-05-10T01:49:51.049Z,99326.59
2023-05-10T01:50:53.242Z,99330.66
2023-05-10T01:52:04.944Z,99330.75
2023-05-10T01:53:08.898Z,99332.66
2023-05-10T01:54:13.036Z,99330.75
2023-05-10T01:55:17.525Z,99328.03
2023-05-10T01:56:24.280Z,99333.28
2023-05-10T01:57:33.418Z,99328.28
2023-05-10T01:58:37.271Z,99328.28
2023-05-10T01:59:41.159Z,99328.28
2023-05-10T02:00:47.078Z,99329.69
2023-05-10T02:01:50.899Z,99328.34
2023-05-10T02:02:53.685Z,99324.53
2023-05-10T02:03:57.210Z,99323.97
2023-05-10T02:05:00.403Z,99329.44
2023-05-10T02:06:04.388Z,99324.19
2023-05-10T02:07:07.446Z,99328.84
2023-05-10T02:08:10.141Z,99322.16
2023-05-10T02:09:12.970Z,99325.03
2023-05-10T02:10:16.814Z,99319.78
2023-05-10T02:11:20.600Z,99321.81
2023-05-10T02:12:24.968Z,99329.09
2023-05-10T02:13:28.236Z,99328.47
2023-05-10T02:14:33.187Z,99331.50
2023-05-10T02:15:36.035Z,99323.03
2023-05-10T02:16:39.808Z,99319.78
2023-05-10T02:17:43.425Z,99321.34
2023-05-10T02:18:45.844Z,99317.19
2023-05-10T02:19:48.571Z,99319.81
2023-05-10T02:20:51.736Z,99326.97
2023-05-10T02:21:54.988Z,99318.38
2023-05-10T02:22:58.580Z,99313.94
2023-05-10T02:24:02.425Z,99319.44
2023-05-10T02:25:04.930Z,99318.38
2023-05-10T02:26:07.565Z,99317.41
2023-05-10T02:27:10.696Z,99317.88
2023-05-10T02:28:15.235Z,99322.66
2023-05-10T02:29:18.231Z,99307.88
2023-05-10T02:30:20.207Z,99318.25
2023-05-10T02:31:23.204Z,99313.84
2023-05-10T02:32:26.953Z,99316.13
2023-05-10T02:33:30.069Z,99321.13
2023-05-10T02:34:32.673Z,99312.75
2023-05-10T02:35:35.803Z,99316.47
2023-05-10T02:36:39.002Z,99315.38
2023-05-10T02:37:41.141Z,99317.28
2023-05-10T02:38:44.092Z,99316.56
2023-05-10T02:39:48.156Z,99318.72
2023-05-10T02:40:49.974Z,99320.25
2023-05-10T02:41:54.469Z,99315.38
2023-05-10T02:42:57.875Z,99321.59
2023-05-10T02:44:01.976Z,99326.53
2023-05-10T02:45:08.698Z,99317.25
2023-05-10T02:46:10.837Z,99323.53
2023-05-10T02:47:12.472Z,99317.09
2023-05-10T02:48:14.067Z,99324.03
2023-05-10T02:49:16.514Z,99311.75
2023-05-10T02:50:18.727Z,99322.84
2023-05-10T02:51:25.325Z,99316.25
2023-05-10T02:52:31.415Z,99318.88
2023-05-10T02:53:35.909Z,99320.22
2023-05-10T02:54:50.206Z,99316.84
2023-05-10T02:55:56.076Z,99315.69
2023-05-10T02:56:59.603Z,99315.06
2023-05-10T02:58:02.485Z,99311.84
2023-05-10T02:59:04.014Z,99317.09
2023-05-10T03:00:06.387Z,99311.59
2023-05-10T03:01:07.987Z,99317.69
2023-05-10T03:02:10.967Z,99313.50
2023-05-10T03:03:12.696Z,99317.78
2023-05-10T03:04:14.503Z,99314.84
2023-05-10T03:05:16.119Z,99318.66
2023-05-10T03:06:17.680Z,99320.56
2023-05-10T03:07:19.892Z,99319.09
2023-05-10T03:08:24.386Z,99313.13
2023-05-10T03:09:25.914Z,99316.59
2023-05-10T03:10:30.262Z,99320.91
2023-05-10T03:12:06.467Z,99315.91
2023-05-10T03:13:29.114Z,99322.66
2023-05-10T03:14:43.162Z,99316.25
2023-05-10T03:16:04.178Z,99316.38
2023-05-10T03:17:30.219Z,99316.25
2023-05-10T03:18:55.605Z,99314.69
2023-05-10T03:20:07.408Z,99306.84
2023-05-10T03:21:12.636Z,99308.75
2023-05-10T03:22:32.578Z,99321.00
2023-05-10T03:23:48.988Z,99313.84
2023-05-10T03:24:52.941Z,99317.44
2023-05-10T03:25:55.340Z,99314.34
2023-05-10T03:26:58.803Z,99320.03
2023-05-10T03:28:02.775Z,99310.84
2023-05-10T03:29:05.911Z,99310.03
2023-05-10T03:30:11.583Z,99311.59
2023-05-10T03:31:13.501Z,99315.75
2023-05-10T03:32:15.544Z,99315.28
2023-05-10T03:33:17.193Z,99306.00
2023-05-10T03:34:25.088Z,99306.72
2023-05-10T03:35:27.214Z,99308.50
2023-05-10T03:36:28.736Z,99305.44
2023-05-10T03:37:31.007Z,99293.16
2023-05-10T03:38:32.556Z,99301.88
2023-05-10T03:39:34.439Z,99301.13
2023-05-10T03:40:37.104Z,99301.50
2023-05-10T03:41:38.601Z,99293.16
2023-05-10T03:42:40.129Z,99300.78
2023-05-10T03:43:41.664Z,99304.25
2023-05-10T03:44:43.154Z,99301.50
2023-05-10T03:45:44.958Z,99300.56
2023-05-10T03:46:46.485Z,99297.81
2023-05-10T03:47:48.159Z,99297.69
2023-05-10T03:48:49.726Z,99297.56
2023-05-10T03:49:51.276Z,99300.78
2023-05-10T03:50:53.160Z,99304.75
2023-05-10T03:51:54.691Z,99301.06
2023-05-10T03:52:56.303Z,99294.75
2023-05-10T03:53:57.856Z,99297.84
2023-05-10T03:54:59.384Z,99299.16
2023-05-10T03:56:00.973Z,99301.19
2023-05-10T03:57:02.496Z,99294.03
2023-05-10T03:58:06.095Z,99302.03
2023-05-10T03:59:08.647Z,99293.06
2023-05-10T04:00:11.249Z,99289.97
2023-05-10T04:01:18.730Z,99287.72
2023-05-10T04:02:21.749Z,99290.44
2023-05-10T04:03:23.390Z,99290.09
2023-05-10T04:04:25.081Z,99301.44
2023-05-10T04:05:26.592Z,99289.03
2023-05-10T04:06:28.477Z,99298.91
2023-05-10T04:07:30.484Z,99296.66
2023-05-10T04:08:32.441Z,99293.81
2023-05-10T04:09:33.984Z,99294.25
2023-05-10T04:10:35.551Z,99291.38
2023-05-10T04:11:37.096Z,99293.19
2023-05-10T04:12:38.656Z,99292.00
2023-05-10T04:13:40.234Z,99294.09
2023-05-10T04:14:41.737Z,99290.78
2023-05-10T04:15:43.253Z,99299.13
2023-05-10T04:16:44.808Z,99301.28
2023-05-10T04:17:46.361Z,99291.00
2023-05-10T04:18:47.922Z,99294.34
2023-05-10T04:19:49.422Z,99293.34
2023-05-10T04:20:50.919Z,99300.63
2023-05-10T04:21:52.442Z,99299.44
2023-05-10T04:22:54.000Z,99295.25
2023-05-10T04:23:55.530Z,99296.53
2023-05-10T04:24:57.046Z,99289.97
2023-05-10T04:26:02.249Z,99293.19
2023-05-10T04:27:03.800Z,99296.13
2023-05-10T04:28:05.324Z,99294.06
2023-05-10T04:29:06.975Z,99294.53
2023-05-10T04:30:09.007Z,99295.38
2023-05-10T04:31:11.007Z,99291.41
2023-05-10T04:32:12.616Z,99294.75
2023-05-10T04:33:14.122Z,99299.38
2023-05-10T04:34:15.718Z,99297.19
2023-05-10T04:35:17.329Z,99295.03
2023-05-10T04:36:18.879Z,99287.69
2023-05-10T04:37:20.495Z,99294.63
2023-05-10T04:38:22.065Z,99293.69
2023-05-10T04:39:23.604Z,99290.53
2023-05-10T04:40:25.109Z,99294.44
2023-05-10T04:41:26.617Z,99291.56
2023-05-10T04:42:28.153Z,99288.66
2023-05-10T04:43:29.854Z,99286.22
2023-05-10T04:44:31.367Z,99291.28
2023-05-10T04:45:32.838Z,99289.56
2023-05-10T04:46:34.401Z,99290.19
2023-05-10T04:47:36.021Z,99294.38
2023-05-10T04:48:37.590Z,99289.31
2023-05-10T04:49:39.307Z,99286.81
2023-05-10T04:50:40.852Z,99287.94
2023-05-10T04:51:42.402Z,99284.19
2023-05-10T04:52:43.918Z,99291.53
2023-05-10T04:53:51.163Z,99284.44
2023-05-10T04:54:59.631Z,99299.25
2023-05-10T04:56:01.146Z,99290.84
2023-05-10T04:57:02.673Z,99297.22
2023-05-10T04:58:04.193Z,99296.09
2023-05-10T04:59:05.719Z,99293.34
2023-05-10T05:00:08.001Z,99297.13
2023-05-10T05:01:10.156Z,99293.03
2023-05-10T05:02:11.741Z,99294.72
2023-05-10T05:03:13.342Z,99291.81
2023-05-10T05:04:14.907Z,99298.31
2023-05-10T05:05:16.575Z,99297.81
2023-05-10T05:06:18.074Z,99293.97
2023-05-10T05:07:19.583Z,99293.41
2023-05-10T05:08:21.124Z,99298.03
2023-05-10T05:09:22.644Z,99299.00
2023-05-10T05:10:24.186Z,99292.72
2023-05-10T05:11:25.720Z,99291.78
2023-05-10T05:12:27.235Z,99290.53
2023-05-10T05:13:28.818Z,99291.22
2023-05-10T05:14:30.384Z,99290.38
2023-05-10T05:15:32.041Z,99297.41
2023-05-10T05:16:33.617Z,99301.28
2023-05-10T05:17:35.194Z,99298.72
2023-05-10T05:18:36.703Z,99293.81
2023-05-10T05:19:38.224Z,99294.88
2023-05-10T05:20:39.767Z,99298.00
2023-05-10T05:21:41.338Z,99294.28
2023-05-10T05:22:42.870Z,99293.56
2023-05-10T05:23:44.871Z,99297.41
2023-05-10T05:24:46.441Z,99297.47
2023-05-10T05:25:47.982Z,99301.84
2023-05-10T05:26:49.750Z,99294.69
2023-05-10T05:27:51.288Z,99295.72
2023-05-10T05:28:52.837Z,99300.19
2023-05-10T05:29:55.511Z,99297.16
2023-05-10T05:30:57.187Z,99291.34
2023-05-10T05:31:58.829Z,99295.25
2023-05-10T05:33:00.435Z,99296.66
2023-05-10T05:34:02.074Z,99291.25
2023-05-10T05:35:03.746Z,99297.56
2023-05-10T05:36:06.407Z,99295.44
2023-05-10T05:37:07.964Z,99296.63
2023-05-10T05:38:09.716Z,99289.16
2023-05-10T05:39:11.241Z,99290.81
2023-05-10T05:40:15.694Z,99293.47
2023-05-10T05:41:17.241Z,99289.16
2023-05-10T05:42:18.773Z,99289.88
2023-05-10T05:43:20.338Z,99289.69
2023-05-10T05:44:21.864Z,99287.84
2023-05-10T05:45:23.369Z,99288.56
2023-05-10T05:46:24.955Z,99287.22
2023-05-10T05:47:26.542Z,99292.13
2023-05-10T05:48:28.132Z,99293.13
2023-05-10T05:49:29.739Z,99292.66
2023-05-10T05:50:31.244Z,99285.72
2023-05-10T05:51:32.779Z,99285.72
2023-05-10T05:52:34.283Z,99294.25
2023-05-10T05:53:35.771Z,99290.00
2023-05-10T05:54:37.249Z,99287.38
2023-05-10T05:55:38.792Z,99288.56
2023-05-10T05:56:40.340Z,99285.41
2023-05-10T05:57:41.853Z,99286.25
2023-05-10T05:58:43.331Z,99288.94
2023-05-10T05:59:44.910Z,99289.03
2023-05-10T06:00:46.468Z,99288.03
2023-05-10T06:01:48.160Z,99291.28
2023-05-10T06:02:49.778Z,99294.38
2023-05-10T06:03:53.325Z,99291.53
2023-05-10T06:04:55.124Z,99300.84
2023-05-10T06:05:56.668Z,99302.84
2023-05-10T06:06:58.169Z,99290.97
2023-05-10T06:08:00.857Z,99293.66
2023-05-10T06:09:02.364Z,99293.66
2023-05-10T06:10:04.542Z,99296.84
2023-05-10T06:11:06.083Z,99291.88
2023-05-10T06:12:07.668Z,99292.81
2023-05-10T06:13:09.381Z,99298.91
2023-05-10T06:14:10.958Z,99292.66
2023-05-10T06:15:12.633Z,99291.34
2023-05-10T06:16:14.230Z,99291.00
2023-05-10T06:17:15.859Z,99291.34
2023-05-10T06:18:17.439Z,99289.63
2023-05-10T06:19:18.933Z,99301.25
2023-05-10T06:20:20.488Z,99293.00
2023-05-10T06:21:22.042Z,99296.84
2023-05-10T06:22:23.562Z,99298.63
2023-05-10T06:23:25.266Z,99299.28
2023-05-10T06:24:26.776Z,99292.63
2023-05-10T06:25:28.376Z,99285.53
2023-05-10T06:26:29.928Z,99287.53
2023-05-10T06:27:31.429Z,99296.66
2023-05-10T06:28:32.936Z,99296.50
2023-05-10T06:29:34.476Z,99298.22
2023-05-10T06:30:37.465Z,99300.22
2023-05-10T06:31:39.117Z,99285.81
2023-05-10T06:32:40.739Z,99291.63
2023-05-10T06:33:42.366Z,99293.28
2023-05-10T06:34:43.948Z,99293.94
2023-05-10T06:35:45.439Z,99294.13
2023-05-10T06:36:46.950Z,99284.84
2023-05-10T06:37:48.512Z,99291.00
2023-05-10T06:38:50.062Z,99287.97
2023-05-10T06:39:51.596Z,99288.16
2023-05-10T06:40:53.140Z,99288.50
2023-05-10T06:41:54.611Z,99291.16
2023-05-10T06:42:56.181Z,99291.00
2023-05-10T06:43:57.706Z,99283.22
2023-05-10T06:44:59.221Z,99286.38
2023-05-10T06:46:00.737Z,99280.44
2023-05-10T06:47:02.371Z,99278.75
2023-05-10T06:48:04.132Z,99283.25
2023-05-10T06:49:05.667Z,99282.09
2023-05-10T06:50:08.705Z,99284.09
2023-05-10T06:51:10.237Z,99279.94
2023-05-10T06:52:11.805Z,99282.09
2023-05-10T06:53:13.346Z,99277.31
2023-05-10T06:54:14.981Z,99277.31
2023-05-10T06:55:16.714Z,99276.81
2023-05-10T06:56:18.540Z,99279.47
2023-05-10T06:57:31.092Z,99277.66
2023-05-10T06:58:33.071Z,99283.13
2023-05-10T06:59:34.679Z,99275.66
2023-05-10T07:00:36.321Z,99278.78
2023-05-10T07:01:37.919Z,99272.97
2023-05-10T07:02:39.485Z,99279.09
2023-05-10T07:03:41.041Z,99270.63
2023-05-10T07:04:42.621Z,99283.09
2023-05-10T07:05:44.214Z,99272.81
2023-05-10T07:06:45.729Z,99276.13
2023-05-10T07:07:47.268Z,99267.66
2023-05-10T07:08:48.794Z,99274.13
2023-05-10T07:09:50.343Z,99265.19
2023-05-10T07:10:51.871Z,99259.16
2023-05-10T07:11:53.402Z,99259.50
2023-05-10T07:12:55.084Z,99263.25
2023-05-10T07:13:57.834Z,99257.25
2023-05-10T07:14:59.409Z,99265.22
2023-05-10T07:16:01.701Z,99262.56
2023-05-10T07:17:03.283Z,99267.19
2023-05-10T07:18:04.889Z,99267.03
2023-05-10T07:19:06.513Z,99274.63
2023-05-10T07:20:08.889Z,99265.19
2023-05-10T07:21:10.450Z,99266.31
2023-05-10T07:22:12.062Z,99270.63
2023-05-10T07:23:13.567Z,99266.66
2023-05-10T07:24:15.087Z,99268.97
2023-05-10T07:25:16.918Z,99273.13
2023-05-10T07:26:18.537Z,99265.28
2023-05-10T07:27:20.082Z,99263.63
2023-05-10T07:28:21.633Z,99270.75
2023-05-10T07:29:23.150Z,99266.91
2023-05-10T07:30:24.718Z,99258.06
2023-05-10T07:31:26.266Z,99264.91
2023-05-10T07:32:28.006Z,99269.38
2023-05-10T07:33:29.728Z,99261.59
2023-05-10T07:34:31.399Z,99261.03
2023-05-10T07:35:32.915Z,99257.22
2023-05-10T07:36:34.465Z,99258.34
2023-05-10T07:37:36.074Z,99250.19
2023-05-10T07:38:40.247Z,99261.13
2023-05-10T07:39:42.443Z,99257.09
2023-05-10T07:40:43.977Z,99253.47
2023-05-10T07:41:45.475Z,99258.53
2023-05-10T07:42:47.028Z,99243.41
2023-05-10T07:43:48.576Z,99259.03
2023-05-10T07:44:50.091Z,99265.47
2023-05-10T07:45:52.781Z,99257.28
2023-05-10T07:46:56.246Z,99250.69
2023-05-10T07:47:57.767Z,99255.09
2023-05-10T07:48:59.303Z,99253.19
2023-05-10T07:50:00.935Z,99248.19
2023-05-10T07:51:02.512Z,99247.09
2023-05-10T07:52:04.675Z,99248.31
2023-05-10T07:53:06.206Z,99250.41
2023-05-10T07:54:07.717Z,99245.53
2023-05-10T07:55:09.958Z,99242.03
2023-05-10T07:56:28.892Z,99246.19
2023-05-10T07:57:30.431Z,99250.13
2023-05-10T07:58:31.939Z,99254.53
2023-05-10T07:59:33.421Z,99245.09
2023-05-10T08:00:34.952Z,99246.94
2023-05-10T08:01:36.618Z,99253.00
2023-05-10T08:02:38.256Z,99248.47
2023-05-10T08:03:39.830Z,99238.06
2023-05-10T08:04:41.349Z,99240.09
2023-05-10T08:05:43.371Z,99243.81
2023-05-10T08:06:44.922Z,99246.00
2023-05-10T08:07:46.433Z,99248.50
2023-05-10T08:08:49.262Z,99248.94
2023-05-10T08:09:50.842Z,99257.22
2023-05-10T08:10:52.354Z,99244.63
2023-05-10T08:11:53.891Z,99242.69
2023-05-10T08:12:55.378Z,99246.25
2023-05-10T08:13:56.924Z,99248.00
2023-05-10T08:14:58.416Z,99255.66
2023-05-10T08:15:59.950Z,99251.06
2023-05-10T08:17:01.528Z,99250.97
2023-05-10T08:18:03.072Z,99252.78
2023-05-10T08:19:04.653Z,99247.75
2023-05-10T08:20:06.618Z,99250.56
2023-05-10T08:21:08.268Z,99245.31
2023-05-10T08:22:09.794Z,99249.66
2023-05-10T08:23:13.200Z,99247.47
2023-05-10T08:24:14.928Z,99248.63
2023-05-10T08:25:16.860Z,99243.03
2023-05-10T08:26:18.575Z,99246.03
2023-05-10T08:27:20.154Z,99250.25
2023-05-10T08:28:21.663Z,99249.78
2023-05-10T08:29:23.250Z,99247.44
2023-05-10T08:30:24.781Z,99251.19
2023-05-10T08:31:26.398Z,99252.41
2023-05-10T08:32:28.034Z,99254.69
2023-05-10T08:33:29.581Z,99251.06
2023-05-10T08:34:31.061Z,99239.28
2023-05-10T08:35:32.599Z,99255.78
2023-05-10T08:36:34.136Z,99255.41
2023-05-10T08:37:35.686Z,99254.94
2023-05-10T08:38:38.620Z,99252.09
2023-05-10T08:39:40.250Z,99259.09
2023-05-10T08:40:43.829Z,99249.91
2023-05-10T08:41:47.764Z,99246.88
2023-05-10T08:43:22.010Z,99254.09
2023-05-10T08:44:24.396Z,99249.53
2023-05-10T08:45:29.329Z,99255.97
2023-05-10T08:46:34.331Z,99258.63
2023-05-10T08:47:38.446Z,99249.38
2023-05-10T08:48:40.499Z,99244.22
2023-05-10T08:49:43.604Z,99252.25
2023-05-10T08:50:47.244Z,99256.81
2023-05-10T08:51:53.041Z,99250.69
2023-05-10T08:52:58.588Z,99243.84
2023-05-10T08:54:00.814Z,99255.16
2023-05-10T08:55:02.354Z,99250.94
2023-05-10T08:56:04.561Z,99249.09
2023-05-10T08:57:06.664Z,99249.56
2023-05-10T08:58:09.977Z,99256.81
2023-05-10T08:59:11.720Z,99249.81
2023-05-10T09:00:14.536Z,99250.63
2023-05-10T09:01:17.608Z,99253.63
2023-05-10T09:02:20.939Z,99251.03
2023-05-10T09:03:22.460Z,99255.13
2023-05-10T09:04:24.127Z,99252.16
2023-05-10T09:05:26.146Z,99260.03
2023-05-10T09:06:27.895Z,99250.75
2023-05-10T09:07:29.520Z,99251.13
2023-05-10T09:08:31.073Z,99248.19
2023-05-10T09:09:32.787Z,99256.47
2023-05-10T09:10:34.506Z,99245.34
2023-05-10T09:11:36.167Z,99247.56
2023-05-10T09:12:38.280Z,99248.47
2023-05-10T09:13:40.148Z,99242.97
2023-05-10T09:14:42.161Z,99249.69
2023-05-10T09:15:45.541Z,99253.19
2023-05-10T09:16:48.173Z,99248.53
2023-05-10T09:17:50.722Z,99251.63
2023-05-10T09:18:52.319Z,99248.34
2023-05-10T09:20:04.714Z,99248.53
2023-05-10T09:21:06.265Z,99251.22
2023-05-10T09:22:07.978Z,99242.19
2023-05-10T09:23:09.545Z,99241.84
2023-05-10T09:24:11.111Z,99240.63
2023-05-10T09:25:15.385Z,99243.91
2023-05-10T09:26:17.197Z,99249.47
2023-05-10T09:27:27.649Z,99251.00
2023-05-10T09:28:32.908Z,99245.00
2023-05-10T09:29:41.413Z,99243.53
2023-05-10T09:30:42.996Z,99240.19
2023-05-10T09:31:51.802Z,99238.22
2023-05-10T09:32:54.239Z,99241.06
2023-05-10T09:33:55.758Z,99240.09
2023-05-10T09:34:57.322Z,99237.78
2023-05-10T09:36:08.335Z,99241.53
2023-05-10T09:37:09.881Z,99240.72
2023-05-10T09:38:11.464Z,99243.50
2023-05-10T09:39:12.985Z,99249.84
2023-05-10T09:40:16.768Z,99250.69
2023-05-10T09:41:23.534Z,99247.88
2023-05-10T09:42:25.112Z,99242.22
2023-05-10T09:43:26.651Z,99243.47
2023-05-10T09:44:28.175Z,99242.25
2023-05-10T09:45:37.665Z,99249.44
2023-05-10T09:46:40.373Z,99253.53
2023-05-10T09:47:41.975Z,99243.47
2023-05-10T09:48:46.163Z,99244.63
2023-05-10T09:49:54.342Z,99246.19
2023-05-10T09:50:58.607Z,99251.16
2023-05-10T09:52:05.874Z,99252.28
2023-05-10T09:53:07.426Z,99242.28
2023-05-10T09:54:12.024Z,99241.88
2023-05-10T09:55:13.644Z,99242.47
2023-05-10T09:56:33.976Z,99240.59
2023-05-10T09:57:35.553Z,99237.63
2023-05-10T09:58:40.133Z,99247.84
2023-05-10T09:59:44.269Z,99245.28
2023-05-10T10:00:47.179Z,99244.59
2023-05-10T10:01:52.349Z,99240.47
2023-05-10T10:03:00.864Z,99240.34
2023-05-10T10:04:07.468Z,99238.63
2023-05-10T10:05:09.530Z,99232.06
2023-05-10T10:06:18.791Z,99238.28
2023-05-10T10:07:25.810Z,99238.16
2023-05-10T10:08:27.797Z,99222.72
2023-05-10T10:09:29.892Z,99230.16
2023-05-10T10:10:33.071Z,99230.97
2023-05-10T10:11:38.970Z,99214.31
2023-05-10T10:12:42.112Z,99221.13
2023-05-10T10:13:44.178Z,99223.00
2023-05-10T10:14:49.539Z,99222.34
2023-05-10T10:15:53.141Z,99230.72
2023-05-10T10:17:06.467Z,99230.56
2023-05-10T10:18:14.145Z,99228.50
2023-05-10T10:19:16.082Z,99232.44
2023-05-10T10:20:19.271Z,99219.06
2023-05-10T10:21:21.536Z,99220.34
2023-05-10T10:22:23.076Z,99224.66
2023-05-10T10:23:24.680Z,99225.69
2023-05-10T10:24:26.222Z,99207.75
2023-05-10T10:25:27.813Z,99210.03
2023-05-10T10:26:29.920Z,99225.88
2023-05-10T10:27:47.498Z,99220.91
2023-05-10T10:29:05.896Z,99223.13
2023-05-10T10:30:31.005Z,99223.81
2023-05-10T10:31:53.016Z,99233.56
2023-05-10T10:33:36.520Z,99218.78
2023-05-10T10:34:40.639Z,99223.41
2023-05-10T10:35:43.689Z,99219.19
2023-05-10T10:36:48.818Z,99223.34
2023-05-10T10:37:51.942Z,99222.47
2023-05-10T10:39:00.870Z,99220.41
2023-05-10T10:40:26.087Z,99216.97
2023-05-10T10:41:29.019Z,99219.19
2023-05-10T10:42:46.104Z,99223.59
2023-05-10T10:43:47.620Z,99219.53
2023-05-10T10:44:49.153Z,99225.56
2023-05-10T10:46:11.014Z,99216.63
2023-05-10T10:47:12.555Z,99217.88
2023-05-10T10:48:24.146Z,99213.13
2023-05-10T10:49:25.870Z,99213.13
2023-05-10T10:50:27.509Z,99211.84
2023-05-10T10:51:31.688Z,99209.94
2023-05-10T10:52:34.482Z,99216.09
2023-05-10T10:53:38.142Z,99211.53
2023-05-10T10:54:39.673Z,99217.88
2023-05-10T10:55:47.912Z,99215.03
2023-05-10T10:57:13.363Z,99217.25
2023-05-10T10:58:34.263Z,99209.66
2023-05-10T10:59:35.863Z,99212.50
2023-05-10T11:00:38.345Z,99215.69
2023-05-10T11:01:42.713Z,99212.16
2023-05-10T11:02:52.703Z,99217.16
2023-05-10T11:04:00.137Z,99207.81
2023-05-10T11:05:25.134Z,99206.22
2023-05-10T11:06:36.681Z,99213.44
2023-05-10T11:07:52.747Z,99208.13
2023-05-10T11:08:54.308Z,99209.19
2023-05-10T11:09:55.951Z,99206.06
2023-05-10T11:11:00.462Z,99208.97
2023-05-10T11:12:09.416Z,99206.94
2023-05-10T11:13:10.960Z,99203.28
2023-05-10T11:14:12.541Z,99200.19
2023-05-10T11:15:14.475Z,99203.91
2023-05-10T11:16:22.888Z,99205.69
2023-05-10T11:17:30.666Z,99205.16
2023-05-10T11:18:32.297Z,99200.25
2023-05-10T11:19:33.860Z,99199.66
2023-05-10T11:20:41.220Z,99201.91
2023-05-10T11:21:50.756Z,99202.31
2023-05-10T11:22:55.578Z,99200.06
2023-05-10T11:23:58.820Z,99195.94
2023-05-10T11:25:00.514Z,99201.72
2023-05-10T11:26:02.041Z,99200.09
2023-05-10T11:27:03.968Z,99206.19
2023-05-10T11:28:05.540Z,99200.69
2023-05-10T11:29:07.201Z,99200.06
2023-05-10T11:30:11.115Z,99198.81
2023-05-10T11:31:17.326Z,99199.50
2023-05-10T11:32:20.551Z,99197.91
2023-05-10T11:33:22.140Z,99200.97
2023-05-10T11:34:25.486Z,99195.22
2023-05-10T11:35:28.864Z,99195.41
2023-05-10T11:36:34.960Z,99195.41
2023-05-10T11:37:37.054Z,99193.78
2023-05-10T11:38:38.577Z,99192.97
2023-05-10T11:39:47.040Z,99183.09
2023-05-10T11:40:52.781Z,99185.16
2023-05-10T11:41:54.636Z,99180.59
2023-05-10T11:42:57.292Z,99184.13
2023-05-10T11:43:59.167Z,99189.94
2023-05-10T11:45:01.880Z,99180.94
2023-05-10T11:46:03.681Z,99186.28
2023-05-10T11:47:06.288Z,99186.41
2023-05-10T11:48:08.765Z,99183.09
2023-05-10T11:49:11.623Z,99184.88
2023-05-10T11:50:13.255Z,99183.81
2023-05-10T11:51:14.804Z,99186.44
2023-05-10T11:52:16.320Z,99188.88
2023-05-10T11:53:17.866Z,99183.34
2023-05-10T11:54:19.398Z,99185.28
2023-05-10T11:55:21.098Z,99191.72
2023-05-10T11:56:22.941Z,99185.19
2023-05-10T11:57:27.880Z,99187.31
2023-05-10T11:58:29.393Z,99173.56
2023-05-10T11:59:30.932Z,99174.81
2023-05-10T12:00:32.747Z,99173.81
2023-05-10T12:01:35.142Z,99165.19
2023-05-10T12:02:36.838Z,99170.94
2023-05-10T12:03:39.263Z,99177.75
2023-05-10T12:04:41.650Z,99173.81
2023-05-10T12:05:43.270Z,99174.84
2023-05-10T12:06:44.939Z,99169.69
2023-05-10T12:07:46.455Z,99176.25
2023-05-10T12:08:49.243Z,99170.50
2023-05-10T12:10:05.054Z,99176.69
2023-05-10T12:11:09.293Z,99177.72
2023-05-10T12:12:11.629Z,99180.81
2023-05-10T12:13:14.434Z,99173.84
2023-05-10T12:14:16.613Z,99170.97
2023-05-10T12:15:25.339Z,99173.00
2023-05-10T12:16:30.115Z,99170.13
2023-05-10T12:17:31.852Z,99169.69
2023-05-10T12:18:33.760Z,99183.91
2023-05-10T12:19:39.168Z,99176.09
2023-05-10T12:20:42.192Z,99176.50
2023-05-10T12:21:45.092Z,99174.44
2023-05-10T12:23:00.613Z,99175.03
2023-05-10T12:24:04.350Z,99178.50
2023-05-10T12:25:06.468Z,99172.94
2023-05-10T12:26:10.514Z,99173.16
2023-05-10T12:27:12.073Z,99177.66
2023-05-10T12:28:13.645Z,99179.72
2023-05-10T12:29:21.233Z,99173.75
2023-05-10T12:30:26.611Z,99186.13